MAPA DE AEROPUERTO

INFORMACIÓN METAR y TAF

METAR FOR GCTS
ADDS - METARS form results

(1755 UTC 23 October 2021)
Data provider http://aviationweather.gov/metar/data/
 
METAR text: GCTS 231730Z 08016KT 9999 BKN043 23/16 Q1018 NOSIG
Conditions at: GCTS (TENERIFE SUR/REI, ES) observed 1730 UTC 23 October 2021
Temperature: 23.0°C (73°F)
Dewpoint: 16.0°C (61°F) [RH = 65%]
Pressure (altimeter): 30.06 inches Hg (1018.0 mb)
Winds: from the E (80 degrees) at 18 MPH (16 knots; 8.2 m/s)
Visibility: 6 or more miles (10+ km)
Ceiling: 4300 feet AGL
Clouds: broken clouds at 4300 feet AGL
Weather: no significant weather observed at this time

METAR text: GCTS 231700Z 06018KT 9999 BKN045 23/14 Q1018 NOSIG
Conditions at: GCTS (TENERIFE SUR/REI, ES) observed 1700 UTC 23 October 2021
Temperature: 23.0°C (73°F)
Dewpoint: 14.0°C (57°F) [RH = 57%]
Pressure (altimeter): 30.06 inches Hg (1018.0 mb)
Winds: from the ENE (60 degrees) at 21 MPH (18 knots; 9.3 m/s)
Visibility: 6 or more miles (10+ km)
Ceiling: 4500 feet AGL
Clouds: broken clouds at 4500 feet AGL
Weather: no significant weather observed at this time

Forecast for: GCTS (TENERIFE SUR/REI, ES)
Text: TAF GCTS 231400Z 2315/2415 08020KT 9999 BKN040 TX26/2414Z TN21/2406Z
Forecast period: 1500 to 1900 UTC 23 October 2021
Forecast type: FROM: standard forecast or significant change
Winds: from the E (80 degrees) at 23 MPH (20 knots; 10.3 m/s)
Visibility: 6 or more miles (10+ km)
Ceiling: 4000 feet AGL
Clouds: broken clouds at 4000 feet AGL
Weather: no significant weather forecast for this period
Text: BECMG 2319/2321 02012KT
Forecast period: 1900 UTC 23 October 2021 to 1500 UTC 24 October 2021
Forecast type: BECOMING: Conditions expected to become as follows by 2100 UTC 23 October 2021
Winds: from the NNE (20 degrees) at 14 MPH (12 knots; 6.2 m/s)
Visibility: 6 or more miles (10+ km)
Ceiling: 4000 feet AGL
Clouds: broken clouds at 4000 feet AGL
Weather: no significant weather forecast for this period